Wetterstation Vordersexau
Wetterdaten: Juni 2014
Datum Temp. A. Feuchte A. Luftdruck Regen Wind Richtung Taupunkt Windchill Windben
01.06.2014 17,7 C 57 % 989,4 hPa 0,0 l/m 1,1 km/h N-NO 8,1 C 17,7 C 0,6 km/h
02.06.2014 17,8 C 61 % 988,3 hPa 0,0 l/m 1,8 km/h O-SO 9,4 C 17,6 C 1,0 km/h
03.06.2014 18,6 C 62 % 985,8 hPa 0,0 l/m 1,7 km/h SO 10,3 C 18,5 C 0,9 km/h
04.06.2014 15,3 C 75 % 981,0 hPa 2,0 l/m 1,9 km/h SO 10,7 C 15,2 C 1,2 km/h
05.06.2014 17,8 C 61 % 985,9 hPa 0,0 l/m 4,9 km/h W-SW 9,3 C 17,3 C 2,9 km/h
06.06.2014 20,9 C 57 % 986,6 hPa 0,0 l/m 0,7 km/h SO 10,8 C 20,9 C 0,4 km/h
07.06.2014 25,1 C 55 % 986,3 hPa 0,0 l/m 0,8 km/h SO 14,1 C 25,1 C 0,8 km/h
08.06.2014 27,2 C 54 % 988,1 hPa 0,0 l/m 2,2 km/h W 15,5 C 27,1 C 1,2 km/h
09.06.2014 29,3 C 49 % 987,0 hPa 0,0 l/m 1,4 km/h O-SO 15,5 C 29,3 C 0,9 km/h
10.06.2014 28,8 C 46 % 988,2 hPa 0,0 l/m 1,6 km/h N-NO 15,0 C 28,8 C 1,0 km/h
11.06.2014 27,2 C 52 % 992,7 hPa 0,0 l/m 2,3 km/h SO 15,4 C 27,2 C 1,3 km/h
12.06.2014 23,9 C 65 % 993,1 hPa 0,0 l/m 2,6 km/h N-NO 16,4 C 23,9 C 1,4 km/h
13.06.2014 23,8 C 56 % 989,8 hPa 0,0 l/m 1,8 km/h N-NO 13,0 C 23,7 C 1,0 km/h
14.06.2014 20,6 C 52 % 987,8 hPa 0,0 l/m 5,8 km/h N-NO 9,8 C 20,2 C 3,3 km/h
15.06.2014 20,5 C 46 % 988,2 hPa 0,0 l/m 3,9 km/h N-NO 7,7 C 20,3 C 2,3 km/h
16.06.2014 20,1 C 48 % 988,0 hPa 0,0 l/m 2,9 km/h N 7,4 C 19,9 C 1,7 km/h
17.06.2014 17,7 C 62 % 988,0 hPa 0,0 l/m 1,1 km/h O-SO 10,1 C 17,7 C 0,7 km/h
18.06.2014 20,6 C 55 % 988,0 hPa 0,0 l/m 2,8 km/h N-NO 9,9 C 20,4 C 1,9 km/h
19.06.2014 20,7 C 54 % 988,1 hPa 0,0 l/m 3,2 km/h O-NO 9,7 C 20,5 C 1,8 km/h
20.06.2014 18,6 C 57 % 988,1 hPa 0,0 l/m 1,6 km/h N-NO 9,1 C 18,4 C 0,9 km/h
21.06.2014 20,2 C 51 % 987,9 hPa 0,0 l/m 2,2 km/h NW 8,4 C 20,1 C 1,2 km/h
22.06.2014 20,9 C 51 % 988,8 hPa 0,0 l/m 1,6 km/h NO 8,9 C 20,9 C 0,9 km/h
23.06.2014 20,1 C 59 % 989,0 hPa 0,8 l/m 1,8 km/h O-SO 10,8 C 20,0 C 1,0 km/h
24.06.2014 21,0 C 65 % 986,5 hPa 0,6 l/m 1,6 km/h W 13,1 C 20,9 C 0,9 km/h
25.06.2014 19,6 C 57 % 982,7 hPa 0,0 l/m 5,4 km/h SO 9,7 C 19,0 C 3,0 km/h
26.06.2014 19,9 C 48 % 984,5 hPa 0,0 l/m 2,4 km/h N-NO 6,9 C 19,8 C 1,3 km/h
27.06.2014 22,0 C 48 % 986,0 hPa 0,0 l/m 3,3 km/h O-NO 9,0 C 22,0 C 2,0 km/h
28.06.2014 19,7 C 67 % 983,4 hPa 1,6 l/m 1,2 km/h N-NO 13,2 C 19,5 C 0,7 km/h
29.06.2014 16,4 C 79 % 981,5 hPa 5,1 l/m 8,1 km/h S-SO 12,7 C 14,8 C 5,0 km/h
30.06.2014 16,1 C 72 % 987,4 hPa 1,7 l/m 3,6 km/h W-SW 10,7 C 15,6 C 2,1 km/h
Min-Datum 16.06.14 13.06.14 29.06.14 6 Tage 01.06.14 - 16.06.14 16.06.14 01.06.14
Min-Zeit 06:19 17:19 04:19 - 00:19 - 05:19 06:19 00:19
Minimum 6,4 C 20 % 978,2 hPa - 0,0 km/h - 2,9 C 6,4 C 0,0 km/h
Max-Datum 09.06.14 03.06.14 12.06.14 29.06.14 29.06.14 - 12.06.14 09.06.14 29.06.14
Max-Zeit 18:19 06:19 00:19 14:19 07:19 - 15:19 18:19 07:19
Maximum 44,5 C 85 % 994,4 hPa 5,1 l/m 40,2 km/h
S-SO
- 20,4 C 44,5 C 22,3 km/h
S-SO
Durchschnitt 20,9 C 57 % 987,2 hPa #11,8 l/m 2,6 km/h N-NO 11,0 C 20,7 C 1,5 km/h

Durchschnitt Minimum Temp.10,9 C
Durchschnitt Maximum Temp.31,9 C
www.sexauwetter.de